Airfield :
LOGIN :

Register | Disclaimer

   EN    FR    IT 

 










Legend :    VFR   Marginal VFR   IFR   Intensive IFR   Very Intensive IFR
Visi :
Ceiling :
>= 8 km
>= 3000ft
5 to 8 km
1000 to 3000 ft
1500m to 5 km
500 to 1000 ft
800 to 1500m
200 to 500 ft
< 800m
< 200 ft
Symbols :   Thunderstorms  Fog  Heavy snow  Heavy precipitations  Wind > 20 kt
SIGMETs :     Misc.  Thunderstorms  Icing  Turbulence  Mountain Waves  Volcanic Ashes






- Airport Elevation : 245 ft
- IATA code : BIQ


LFBZ - Biarritz

CURRENT METAR :
  • 200800Z AUTO 27013KT 9999 OVC008 18/17 Q1021 BECMG BKN015

EXPIRED METARs :
  • 200730Z AUTO 29010KT 240V320 9999 OVC008 19/17 Q1020 BECMG BKN015
  • 200700Z AUTO 29009KT 250V310 9999 OVC007 18/17 Q1020 BECMG BKN015
  • 200630Z AUTO 28007KT 250V310 9999 OVC007 18/17 Q1019 BECMG BKN015
  • 200600Z AUTO 29006KT 230V310 9999 OVC007 18/17 Q1019 NOSIG
  • 200530Z AUTO 29008KT 9999 OVC006 18/17 Q1018 TEMPO 4000 BR OVC003

TAF TAF LFBZ
Valid from the 20 at 06:00 until the 21 at 06:00 UTC


200500Z 2006/2106 27010KT 9999 OVC005
BECMG 2008/2010 BKN015
BECMG 2012/2014 CAVOK
BECMG 2019/2021 VRB03KT
TEMPO 2021/2103 BKN005
PROB30
TEMPO 2103/2106 0300 FG VV///



MET'MAP, your aeronautical weather chart ! - Copyright ORBIFLY December 2007 - Disclaimer

ORBIFLY MET'MAP TEAM :

Programming & Development : Alexandra Zaïnal
Original concept : Baudouin d'Aumeries
Technical & hardware support : Manuel Goepfert
Assistance : Marc-Olivier Méhu

Contact : metmap@orbifly.com




SOURCES & CREDITS :

   NOAA